North Palm Beach, Florida
Current Conditions -  °F | °C
As of 12:53 PM on Monday 22 Dec 2014 (Local Time) from KPBI Reporting Station
Broken Clouds Broken Clouds  
Wind Chill: 83°   Ceiling: 25000
Heat Index: 85°   Visibility: 10mi
Dew Point: 66°   Wind: 14mph
Humidity: 56%   Direction: 160°SSE
Pressure: 29.97"   Gusts: NA
Location:  26.81°N, 80.06°W
Report Text: KPBI 221753Z 16012KT 10SM SCT031 BKN250 28/19 A2997 RMK AO2 SLP149 T02830189 10283 20200 58021
Loading
Personal Weather Stations






























Interactive Weather Map New forecast layout! Learn more

10-Day Weather Forecast

Advertisements
Track Severe Weather on mobile